sensor_id;sensor_type;location;lat;lon;timestamp;pressure;altitude;pressure_sealevel;temperature;humidity
1776;BME280;885;42.626;23.200;2022-07-23T00:00:20;109412.78;;;19.44;59.87
1776;BME280;885;42.626;23.200;2022-07-23T00:02:47;109096.09;;;19.37;60.06
1776;BME280;885;42.626;23.200;2022-07-23T00:05:15;109357.94;;;19.37;60.76
1776;BME280;885;42.626;23.200;2022-07-23T00:07:42;108427.84;;;19.19;60.82
1776;BME280;885;42.626;23.200;2022-07-23T00:10:09;108853.94;;;19.24;61.17
1776;BME280;885;42.626;23.200;2022-07-23T00:12:36;108483.19;;;19.23;60.91
1776;BME280;885;42.626;23.200;2022-07-23T00:15:05;108102.13;;;19.15;60.88
1776;BME280;885;42.626;23.200;2022-07-23T00:17:32;107654.56;;;19.08;60.82
1776;BME280;885;42.626;23.200;2022-07-23T00:19:59;107877.88;;;19.11;60.83
1776;BME280;885;42.626;23.200;2022-07-23T00:22:28;107799.44;;;19.08;61.24
1776;BME280;885;42.626;23.200;2022-07-23T00:24:55;107582.44;;;19.06;61.10
1776;BME280;885;42.626;23.200;2022-07-23T00:27:22;107287.59;;;19.03;60.79
1776;BME280;885;42.626;23.200;2022-07-23T00:29:48;106814.44;;;18.99;60.27
1776;BME280;885;42.626;23.200;2022-07-23T00:32:15;106761.09;;;19.00;60.21
1776;BME280;885;42.626;23.200;2022-07-23T00:34:42;106353.13;;;18.98;59.43
1776;BME280;885;42.626;23.200;2022-07-23T00:37:09;106476.25;;;18.96;59.91
1776;BME280;885;42.626;23.200;2022-07-23T00:39:37;106357.03;;;18.94;60.03
1776;BME280;885;42.626;23.200;2022-07-23T00:42:04;106325.03;;;18.90;60.10
1776;BME280;885;42.626;23.200;2022-07-23T00:44:31;106270.88;;;18.91;60.23
1776;BME280;885;42.626;23.200;2022-07-23T00:46:58;106108.44;;;18.84;60.77
1776;BME280;885;42.626;23.200;2022-07-23T00:49:27;106360.66;;;18.82;61.72
1776;BME280;885;42.626;23.200;2022-07-23T00:51:54;106439.84;;;18.78;62.51
1776;BME280;885;42.626;23.200;2022-07-23T00:54:22;107274.84;;;18.77;64.60
1776;BME280;885;42.626;23.200;2022-07-23T00:56:51;107727.19;;;18.74;65.83
1776;BME280;885;42.626;23.200;2022-07-23T00:59:18;107238.19;;;18.72;64.96
1776;BME280;885;42.626;23.200;2022-07-23T01:01:44;106646.56;;;18.68;63.90
1776;BME280;885;42.626;23.200;2022-07-23T01:04:14;106491.94;;;18.69;63.67
1776;BME280;885;42.626;23.200;2022-07-23T01:06:43;106659.97;;;18.64;64.68
1776;BME280;885;42.626;23.200;2022-07-23T01:09:10;106608.06;;;18.59;64.96
1776;BME280;885;42.626;23.200;2022-07-23T01:11:37;107626.59;;;18.61;67.11
1776;BME280;885;42.626;23.200;2022-07-23T01:14:10;105891.78;;;18.53;63.91
1776;BME280;885;42.626;23.200;2022-07-23T01:16:38;104920.94;;;18.52;61.88
1776;BME280;885;42.626;23.200;2022-07-23T01:19:05;105220.81;;;18.48;63.15
1776;BME280;885;42.626;23.200;2022-07-23T01:21:35;105248.88;;;18.60;61.67
1776;BME280;885;42.626;23.200;2022-07-23T01:24:04;105422.34;;;18.68;61.52
1776;BME280;885;42.626;23.200;2022-07-23T01:26:31;104972.50;;;18.66;60.59
1776;BME280;885;42.626;23.200;2022-07-23T01:28:58;105284.84;;;18.74;60.17
1776;BME280;885;42.626;23.200;2022-07-23T01:31:25;105243.31;;;18.82;59.31
1776;BME280;885;42.626;23.200;2022-07-23T01:33:52;104955.47;;;18.80;58.93
1776;BME280;885;42.626;23.200;2022-07-23T01:36:19;106182.84;;;18.83;61.64
1776;BME280;885;42.626;23.200;2022-07-23T01:38:46;104981.00;;;18.74;59.72
1776;BME280;885;42.626;23.200;2022-07-23T01:41:15;104915.63;;;18.73;59.72
1776;BME280;885;42.626;23.200;2022-07-23T01:43:42;104822.13;;;18.69;60.25
1776;BME280;885;42.626;23.200;2022-07-23T01:46:08;105226.97;;;18.74;60.42
1776;BME280;885;42.626;23.200;2022-07-23T01:48:35;106244.00;;;18.82;62.06
1776;BME280;885;42.626;23.200;2022-07-23T01:51:02;106351.63;;;18.84;61.94
1776;BME280;885;42.626;23.200;2022-07-23T01:53:29;105980.06;;;18.80;61.72
1776;BME280;885;42.626;23.200;2022-07-23T01:55:56;106587.16;;;18.79;63.30
1776;BME280;885;42.626;23.200;2022-07-23T01:58:26;107094.47;;;18.76;64.67
1776;BME280;885;42.626;23.200;2022-07-23T02:00:53;107511.72;;;18.75;65.60
1776;BME280;885;42.626;23.200;2022-07-23T02:03:20;107914.50;;;18.78;66.06
1776;BME280;885;42.626;23.200;2022-07-23T02:05:51;108734.72;;;18.80;67.51
1776;BME280;885;42.626;23.200;2022-07-23T02:08:18;108027.44;;;18.78;66.17
1776;BME280;885;42.626;23.200;2022-07-23T02:10:45;107023.72;;;18.69;65.27
1776;BME280;885;42.626;23.200;2022-07-23T02:13:12;107020.63;;;18.65;65.55
1776;BME280;885;42.626;23.200;2022-07-23T02:15:40;106383.69;;;18.62;64.42
1776;BME280;885;42.626;23.200;2022-07-23T02:18:07;106095.69;;;18.56;64.51
1776;BME280;885;42.626;23.200;2022-07-23T02:20:34;105928.72;;;18.48;65.42
1776;BME280;885;42.626;23.200;2022-07-23T02:23:43;105310.41;;;18.45;64.35
1776;BME280;885;42.626;23.200;2022-07-23T02:26:32;104356.66;;;18.38;62.77
1776;BME280;885;42.626;23.200;2022-07-23T02:29:06;104201.69;;;18.34;63.04
1776;BME280;885;42.626;23.200;2022-07-23T02:31:52;104300.84;;;18.34;63.34
1776;BME280;885;42.626;23.200;2022-07-23T02:34:37;104173.19;;;18.32;63.06
1776;BME280;885;42.626;23.200;2022-07-23T02:37:17;103969.56;;;18.33;62.77
1776;BME280;885;42.626;23.200;2022-07-23T02:39:48;104101.69;;;18.29;63.34
1776;BME280;885;42.626;23.200;2022-07-23T02:42:20;104651.00;;;18.29;65.23
1776;BME280;885;42.626;23.200;2022-07-23T02:44:49;105031.94;;;18.32;65.57
1776;BME280;885;42.626;23.200;2022-07-23T02:47:31;104352.88;;;18.34;63.26
1776;BME280;885;42.626;23.200;2022-07-23T02:49:58;104302.50;;;18.35;63.21
1776;BME280;885;42.626;23.200;2022-07-23T02:52:41;105372.91;;;18.37;65.36
1776;BME280;885;42.626;23.200;2022-07-23T02:55:08;104587.09;;;18.34;63.64
1776;BME280;885;42.626;23.200;2022-07-23T02:57:46;104940.34;;;18.36;64.46
1776;BME280;885;42.626;23.200;2022-07-23T03:00:21;105033.72;;;18.37;64.29
1776;BME280;885;42.626;23.200;2022-07-23T03:02:49;104869.63;;;18.34;64.57
1776;BME280;885;42.626;23.200;2022-07-23T03:05:16;105219.44;;;18.30;66.00
1776;BME280;885;42.626;23.200;2022-07-23T03:07:43;106002.84;;;18.32;67.69
1776;BME280;885;42.626;23.200;2022-07-23T03:10:10;105678.53;;;18.33;66.75
1776;BME280;885;42.626;23.200;2022-07-23T03:12:36;105707.81;;;18.32;66.69
1776;BME280;885;42.626;23.200;2022-07-23T03:15:10;105063.16;;;18.26;65.71
1776;BME280;885;42.626;23.200;2022-07-23T03:17:57;105264.63;;;18.22;66.58
1776;BME280;885;42.626;23.200;2022-07-23T03:20:31;105825.78;;;18.26;67.46
1776;BME280;885;42.626;23.200;2022-07-23T03:23:01;105803.84;;;18.25;67.73
1776;BME280;885;42.626;23.200;2022-07-23T03:25:28;106407.97;;;18.26;68.92
1776;BME280;885;42.626;23.200;2022-07-23T03:27:55;106857.06;;;18.32;68.90
1776;BME280;885;42.626;23.200;2022-07-23T03:30:24;106786.66;;;18.37;68.08
1776;BME280;885;42.626;23.200;2022-07-23T03:33:17;105422.22;;;18.28;65.74
1776;BME280;885;42.626;23.200;2022-07-23T03:35:44;105316.06;;;18.29;65.84
1776;BME280;885;42.626;23.200;2022-07-23T03:38:11;105627.91;;;18.27;66.72
1776;BME280;885;42.626;23.200;2022-07-23T03:40:38;105687.47;;;18.28;66.55
1776;BME280;885;42.626;23.200;2022-07-23T03:43:05;105310.28;;;18.29;65.61
1776;BME280;885;42.626;23.200;2022-07-23T03:45:32;105523.56;;;18.32;65.99
1776;BME280;885;42.626;23.200;2022-07-23T03:47:59;105886.66;;;18.30;66.81
1776;BME280;885;42.626;23.200;2022-07-23T03:50:43;105965.94;;;18.28;67.39
1776;BME280;885;42.626;23.200;2022-07-23T03:53:16;106242.06;;;18.22;68.81
1776;BME280;885;42.626;23.200;2022-07-23T03:55:42;106144.28;;;18.16;69.25
1776;BME280;885;42.626;23.200;2022-07-23T03:58:09;106986.84;;;18.25;70.18
1776;BME280;885;42.626;23.200;2022-07-23T04:00:36;107298.88;;;18.32;70.08
1776;BME280;885;42.626;23.200;2022-07-23T04:03:03;107784.84;;;18.42;69.41
1776;BME280;885;42.626;23.200;2022-07-23T04:05:36;107426.88;;;18.42;68.60
1776;BME280;885;42.626;23.200;2022-07-23T04:08:10;106967.38;;;18.39;67.77
1776;BME280;885;42.626;23.200;2022-07-23T04:10:39;106552.63;;;18.35;67.38
1776;BME280;885;42.626;23.200;2022-07-23T04:13:05;106841.81;;;18.40;67.51
1776;BME280;885;42.626;23.200;2022-07-23T04:15:32;107401.69;;;18.43;68.47
1776;BME280;885;42.626;23.200;2022-07-23T04:17:59;107601.09;;;18.39;69.45
1776;BME280;885;42.626;23.200;2022-07-23T04:20:26;107944.34;;;18.40;70.13
1776;BME280;885;42.626;23.200;2022-07-23T04:22:53;108196.72;;;18.42;70.06
1776;BME280;885;42.626;23.200;2022-07-23T04:25:21;108641.97;;;18.45;70.94
1776;BME280;885;42.626;23.200;2022-07-23T04:27:48;109101.59;;;18.38;72.48
1776;BME280;885;42.626;23.200;2022-07-23T04:30:15;110152.63;;;18.38;74.64
1776;BME280;885;42.626;23.200;2022-07-23T04:32:42;110573.59;;;18.44;74.71
1776;BME280;885;42.626;23.200;2022-07-23T04:35:09;110640.16;;;18.50;73.41
1776;BME280;885;42.626;23.200;2022-07-23T04:37:35;110782.94;;;18.57;72.80
1776;BME280;885;42.626;23.200;2022-07-23T04:40:03;110979.91;;;18.64;72.47
1776;BME280;885;42.626;23.200;2022-07-23T04:42:31;111447.53;;;18.69;72.61
1776;BME280;885;42.626;23.200;2022-07-23T04:44:58;111939.41;;;18.75;72.84
1776;BME280;885;42.626;23.200;2022-07-23T04:47:25;112232.50;;;18.80;72.75
1776;BME280;885;42.626;23.200;2022-07-23T04:49:53;113042.19;;;18.82;73.69
1776;BME280;885;42.626;23.200;2022-07-23T04:52:20;113876.00;;;18.86;74.94
1776;BME280;885;42.626;23.200;2022-07-23T04:54:46;114441.06;;;18.92;75.07
1776;BME280;885;42.626;23.200;2022-07-23T04:57:13;114942.63;;;18.97;75.30
1776;BME280;885;42.626;23.200;2022-07-23T04:59:41;115362.34;;;18.98;75.87
1776;BME280;885;42.626;23.200;2022-07-23T05:02:08;114988.13;;;18.96;75.63
1776;BME280;885;42.626;23.200;2022-07-23T05:04:35;114979.81;;;18.92;76.05
1776;BME280;885;42.626;23.200;2022-07-23T05:07:02;115736.66;;;18.99;76.34
1776;BME280;885;42.626;23.200;2022-07-23T05:09:29;116491.91;;;19.06;77.00
1776;BME280;885;42.626;23.200;2022-07-23T05:11:55;116488.16;;;19.04;76.77
1776;BME280;885;42.626;23.200;2022-07-23T05:14:25;116108.19;;;18.99;76.49
1776;BME280;885;42.626;23.200;2022-07-23T05:16:54;116100.75;;;18.95;76.57
1776;BME280;885;42.626;23.200;2022-07-23T05:19:23;116101.56;;;18.97;75.93
1776;BME280;885;42.626;23.200;2022-07-23T05:21:50;116488.16;;;19.04;76.15
1776;BME280;885;42.626;23.200;2022-07-23T05:24:17;116868.25;;;19.09;76.41
1776;BME280;885;42.626;23.200;2022-07-23T05:26:44;117260.66;;;19.20;76.43
1776;BME280;885;42.626;23.200;2022-07-23T05:29:10;118386.59;;;19.25;77.55
1776;BME280;885;42.626;23.200;2022-07-23T05:31:37;119154.47;;;19.38;78.05
1776;BME280;885;42.626;23.200;2022-07-23T05:50:44;124133.84;;;20.08;78.46
1776;BME280;885;42.626;23.200;2022-07-23T05:53:10;124532.81;;;20.21;78.36
1776;BME280;885;42.626;23.200;2022-07-23T05:55:37;124931.00;;;20.34;77.55
1776;BME280;885;42.626;23.200;2022-07-23T05:58:04;126079.06;;;20.48;77.73
1776;BME280;885;42.626;23.200;2022-07-23T06:00:31;126863.59;;;20.67;77.79
1776;BME280;885;42.626;23.200;2022-07-23T06:02:58;127655.88;;;20.89;76.46
1776;BME280;885;42.626;23.200;2022-07-23T06:05:25;129610.56;;;21.30;75.76
1776;BME280;885;42.626;23.200;2022-07-23T06:07:54;133170.09;;;22.20;74.04
1776;BME280;885;42.626;23.200;2022-07-23T06:10:20;137185.81;;;23.40;69.94
1776;BME280;885;42.626;23.200;2022-07-23T06:12:47;140428.56;;;24.43;66.13
1776;BME280;885;42.626;23.200;2022-07-23T06:15:14;142091.22;;;25.11;63.76
1776;BME280;885;42.626;23.200;2022-07-23T06:17:41;141286.09;;;24.89;63.25
1776;BME280;885;42.626;23.200;2022-07-23T06:20:11;139628.47;;;24.23;65.73
1776;BME280;885;42.626;23.200;2022-07-23T06:22:38;138045.81;;;23.89;66.23
1776;BME280;885;42.626;23.200;2022-07-23T06:25:07;137591.88;;;23.53;68.29
1776;BME280;885;42.626;23.200;2022-07-23T06:27:35;137995.88;;;23.66;68.26
1776;BME280;885;42.626;23.200;2022-07-23T06:30:02;140386.78;;;24.25;67.68
1776;BME280;885;42.626;23.200;2022-07-23T06:32:29;141668.06;;;24.91;64.03
1776;BME280;885;42.626;23.200;2022-07-23T06:34:55;143347.53;;;25.65;60.31
1776;BME280;885;42.626;23.200;2022-07-23T06:37:22;144190.63;;;26.03;58.77
1776;BME280;885;42.626;23.200;2022-07-23T06:39:49;142933.88;;;25.50;60.23
1776;BME280;885;42.626;23.200;2022-07-23T06:42:17;143752.16;;;25.77;59.73
1776;BME280;885;42.626;23.200;2022-07-23T06:44:44;145854.31;;;26.67;55.70
1776;BME280;885;42.626;23.200;2022-07-23T06:47:11;148771.53;;;27.79;53.90
1776;BME280;885;42.626;23.200;2022-07-23T06:49:38;150460.28;;;28.49;51.64
1776;BME280;885;42.626;23.200;2022-07-23T06:52:06;151312.34;;;28.87;50.31
1776;BME280;885;42.626;23.200;2022-07-23T06:54:33;150897.72;;;28.73;50.08
1776;BME280;885;42.626;23.200;2022-07-23T06:57:00;150069.03;;;28.45;50.75
1776;BME280;885;42.626;23.200;2022-07-23T06:59:30;148784.66;;;27.84;53.40
1776;BME280;885;42.626;23.200;2022-07-23T07:01:58;147507.66;;;27.26;55.51
1776;BME280;885;42.626;23.200;2022-07-23T07:04:25;146262.66;;;26.80;56.96
1776;BME280;885;42.626;23.200;2022-07-23T07:06:52;145414.69;;;26.41;58.29
1776;BME280;885;42.626;23.200;2022-07-23T07:09:18;144575.94;;;26.06;60.14
1776;BME280;885;42.626;23.200;2022-07-23T07:11:45;144111.81;;;25.69;62.38
1776;BME280;885;42.626;23.200;2022-07-23T07:14:12;143254.19;;;25.24;64.35
1776;BME280;885;42.626;23.200;2022-07-23T07:16:40;142818.97;;;24.99;66.31
1776;BME280;885;42.626;23.200;2022-07-23T07:19:07;143196.59;;;24.99;67.62
1776;BME280;885;42.626;23.200;2022-07-23T07:21:34;142792.59;;;24.88;67.21
1776;BME280;885;42.626;23.200;2022-07-23T07:24:04;142417.31;;;24.89;66.46
1776;BME280;885;42.626;23.200;2022-07-23T07:26:32;142828.16;;;25.03;66.06
1776;BME280;885;42.626;23.200;2022-07-23T07:28:58;143230.00;;;25.14;65.70
1776;BME280;885;42.626;23.200;2022-07-23T07:31:26;143620.47;;;25.19;66.39
1776;BME280;885;42.626;23.200;2022-07-23T07:33:54;144011.03;;;25.25;66.52
1776;BME280;885;42.626;23.200;2022-07-23T07:36:22;144409.84;;;25.34;67.34
1776;BME280;885;42.626;23.200;2022-07-23T07:38:49;144807.66;;;25.43;67.15
1776;BME280;885;42.626;23.200;2022-07-23T07:41:15;145212.56;;;25.54;66.63
1776;BME280;885;42.626;23.200;2022-07-23T07:43:42;145600.09;;;25.58;67.04
1776;BME280;885;42.626;23.200;2022-07-23T07:46:09;145623.50;;;25.68;66.41
1776;BME280;885;42.626;23.200;2022-07-23T07:48:36;145254.59;;;25.72;63.78
1776;BME280;885;42.626;23.200;2022-07-23T07:51:05;144510.91;;;25.78;61.70
1776;BME280;885;42.626;23.200;2022-07-23T07:53:32;144145.41;;;25.83;59.12
1776;BME280;885;42.626;23.200;2022-07-23T07:55:59;144522.50;;;25.83;61.62
1776;BME280;885;42.626;23.200;2022-07-23T07:58:26;144175.53;;;25.96;58.53
1776;BME280;885;42.626;23.200;2022-07-23T08:00:52;142308.38;;;26.07;52.17
1776;BME280;885;42.626;23.200;2022-07-23T08:03:19;144230.06;;;26.20;56.67
1776;BME280;885;42.626;23.200;2022-07-23T08:05:46;145392.47;;;26.32;58.80
1776;BME280;885;42.626;23.200;2022-07-23T08:08:14;146536.81;;;26.35;62.00
1776;BME280;885;42.626;23.200;2022-07-23T08:10:41;146554.50;;;26.43;60.79
1776;BME280;885;42.626;23.200;2022-07-23T08:13:12;146952.22;;;26.51;61.92
1776;BME280;885;42.626;23.200;2022-07-23T08:15:40;146581.56;;;26.54;59.49
1776;BME280;885;42.626;23.200;2022-07-23T08:18:06;145459.06;;;26.60;55.76
1776;BME280;885;42.626;23.200;2022-07-23T08:20:33;147390.41;;;26.76;60.17
1776;BME280;885;42.626;23.200;2022-07-23T08:23:32;144757.34;;;26.85;50.42
1776;BME280;885;42.626;23.200;2022-07-23T08:26:00;145558.47;;;27.03;52.26
1776;BME280;885;42.626;23.200;2022-07-23T08:28:27;145979.75;;;27.21;50.91
1776;BME280;885;42.626;23.200;2022-07-23T08:30:58;148274.88;;;27.29;57.90
1776;BME280;885;42.626;23.200;2022-07-23T08:33:25;147151.94;;;27.36;53.33
1776;BME280;885;42.626;23.200;2022-07-23T08:36:20;145655.53;;;27.45;47.66
1776;BME280;885;42.626;23.200;2022-07-23T08:38:48;145709.31;;;27.68;46.63
1776;BME280;885;42.626;23.200;2022-07-23T08:41:16;148776.31;;;27.81;53.84
1776;BME280;885;42.626;23.200;2022-07-23T08:43:44;149172.97;;;27.88;54.37
1776;BME280;885;42.626;23.200;2022-07-23T08:46:13;147666.50;;;27.93;49.01
1776;BME280;885;42.626;23.200;2022-07-23T08:48:40;147706.88;;;28.10;48.45
1776;BME280;885;42.626;23.200;2022-07-23T08:51:08;147345.84;;;28.18;46.00
1776;BME280;885;42.626;23.200;2022-07-23T08:53:37;144695.09;;;28.22;40.71
1776;BME280;885;42.626;23.200;2022-07-23T08:56:07;144725.25;;;28.35;39.34
1776;BME280;885;42.626;23.200;2022-07-23T08:58:34;147409.69;;;28.46;45.12
1776;BME280;885;42.626;23.200;2022-07-23T09:01:02;147439.28;;;28.58;43.99
1776;BME280;885;42.626;23.200;2022-07-23T09:03:30;151660.25;;;28.73;54.42
1776;BME280;885;42.626;23.200;2022-07-23T09:05:58;150907.41;;;28.77;51.82
1776;BME280;885;42.626;23.200;2022-07-23T09:08:34;148637.28;;;28.82;44.18
1776;BME280;885;42.626;23.200;2022-07-23T09:11:03;147535.09;;;28.99;41.37
1776;BME280;885;42.626;23.200;2022-07-23T09:13:35;150624.69;;;29.18;47.25
1776;BME280;885;42.626;23.200;2022-07-23T09:16:05;146446.69;;;29.22;37.83
1776;BME280;885;42.626;23.200;2022-07-23T09:18:35;147246.72;;;29.38;38.83
1776;BME280;885;42.626;23.200;2022-07-23T09:21:25;149954.34;;;29.56;43.33
1776;BME280;885;42.626;23.200;2022-07-23T09:23:58;149989.22;;;29.70;42.08
1776;BME280;885;42.626;23.200;2022-07-23T09:26:34;152308.41;;;29.83;46.62
1776;BME280;885;42.626;23.200;2022-07-23T09:29:08;152715.56;;;29.94;47.81
1776;BME280;885;42.626;23.200;2022-07-23T09:31:47;153493.44;;;30.00;48.28
1776;BME280;885;42.626;23.200;2022-07-23T09:34:18;152381.72;;;30.14;44.52
1776;BME280;885;42.626;23.200;2022-07-23T09:36:45;152406.16;;;30.24;43.55
1776;BME280;885;42.626;23.200;2022-07-23T09:39:14;153573.53;;;30.33;46.31
1776;BME280;885;42.626;23.200;2022-07-23T09:41:44;153604.31;;;30.45;44.61
1776;BME280;885;42.626;23.200;2022-07-23T09:44:17;152869.94;;;30.57;41.85
1776;BME280;885;42.626;23.200;2022-07-23T09:46:45;150964.41;;;30.59;37.62
1776;BME280;885;42.626;23.200;2022-07-23T09:49:15;154064.00;;;30.77;44.45
1776;BME280;885;42.626;23.200;2022-07-23T09:51:47;154108.53;;;30.95;43.19
1776;BME280;885;42.626;23.200;2022-07-23T09:54:30;153773.09;;;31.14;40.92
1776;BME280;885;42.626;23.200;2022-07-23T09:57:00;153007.22;;;31.14;39.22
1776;BME280;885;42.626;23.200;2022-07-23T09:59:32;153388.28;;;31.13;40.17
1776;BME280;885;42.626;23.200;2022-07-23T10:02:00;154579.97;;;31.31;41.34
1776;BME280;885;42.626;23.200;2022-07-23T10:04:28;154981.09;;;31.39;41.53
1776;BME280;885;42.626;23.200;2022-07-23T10:06:57;152677.53;;;31.35;37.22
1776;BME280;885;42.626;23.200;2022-07-23T10:09:27;153850.75;;;31.46;38.84
1776;BME280;885;42.626;23.200;2022-07-23T10:11:58;154276.53;;;31.64;40.08
1776;BME280;885;42.626;23.200;2022-07-23T10:14:35;153144.53;;;31.70;36.75
1776;BME280;885;42.626;23.200;2022-07-23T10:17:02;154348.16;;;31.93;38.03
1776;BME280;885;42.626;23.200;2022-07-23T10:19:29;154760.81;;;32.05;38.26
1776;BME280;885;42.626;23.200;2022-07-23T10:21:58;156680.03;;;32.06;43.05
1776;BME280;885;42.626;23.200;2022-07-23T10:33:56;154073.81;;;32.37;34.87
1776;BME280;885;42.626;23.200;2022-07-23T10:36:28;154864.94;;;32.47;36.20
1776;BME280;885;42.626;23.200;2022-07-23T10:38:59;155651.47;;;32.55;37.08
1776;BME280;885;42.626;23.200;2022-07-23T10:41:31;155302.91;;;32.69;35.78
1776;BME280;885;42.626;23.200;2022-07-23T10:44:12;154917.00;;;32.68;35.40
1776;BME280;885;42.626;23.200;2022-07-23T10:46:57;152988.25;;;32.63;32.13
1776;BME280;885;42.626;23.200;2022-07-23T10:49:38;154562.06;;;32.80;34.75
1776;BME280;885;42.626;23.200;2022-07-23T10:52:32;154974.00;;;32.92;34.58
1776;BME280;885;42.626;23.200;2022-07-23T10:58:08;153388.59;;;32.70;33.46
1776;BME280;885;42.626;23.200;2022-07-23T11:00:35;153833.38;;;32.96;33.22
1776;BME280;885;42.626;23.200;2022-07-23T11:03:05;155433.38;;;33.22;35.68
1776;BME280;885;42.626;23.200;2022-07-23T11:05:51;155445.84;;;33.27;34.82
1776;BME280;885;42.626;23.200;2022-07-23T11:08:18;156603.66;;;33.30;37.09
1776;BME280;885;42.626;23.200;2022-07-23T11:10:51;155470.69;;;33.37;34.84
1776;BME280;885;42.626;23.200;2022-07-23T11:13:48;155864.53;;;33.41;35.04
1776;BME280;885;42.626;23.200;2022-07-23T11:16:21;153929.34;;;33.35;32.24
1776;BME280;885;42.626;23.200;2022-07-23T11:19:04;153958.91;;;33.47;32.07
1776;BME280;885;42.626;23.200;2022-07-23T11:21:45;153983.53;;;33.57;32.03
1776;BME280;885;42.626;23.200;2022-07-23T11:24:14;154767.38;;;33.63;32.61
1776;BME280;885;42.626;23.200;2022-07-23T11:26:43;153984.78;;;33.57;32.43
1776;BME280;885;42.626;23.200;2022-07-23T11:29:41;152467.91;;;33.65;30.03
1776;BME280;885;42.626;23.200;2022-07-23T11:32:20;154829.22;;;33.89;33.74
1776;BME280;885;42.626;23.200;2022-07-23T11:34:50;154096.78;;;34.03;31.23
1776;BME280;885;42.626;23.200;2022-07-23T11:37:36;155280.38;;;34.16;32.97
1776;BME280;885;42.626;23.200;2022-07-23T11:40:06;154139.81;;;34.21;30.90
1776;BME280;885;42.626;23.200;2022-07-23T11:42:36;155313.81;;;34.29;32.92
1776;BME280;885;42.626;23.200;2022-07-23T11:45:05;154191.50;;;34.42;30.36
1776;BME280;885;42.626;23.200;2022-07-23T11:47:32;153406.88;;;34.35;30.47
1776;BME280;885;42.626;23.200;2022-07-23T11:50:02;154579.66;;;34.44;32.32
1776;BME280;885;42.626;23.200;2022-07-23T11:52:30;151080.22;;;34.26;27.18
1776;BME280;885;42.626;23.200;2022-07-23T11:54:59;149047.66;;;33.79;27.76
1776;BME280;885;42.626;23.200;2022-07-23T11:57:28;149468.13;;;33.94;28.44
1776;BME280;885;42.626;23.200;2022-07-23T11:59:57;152245.75;;;34.32;31.15
1776;BME280;885;42.626;23.200;2022-07-23T12:02:24;152677.47;;;34.52;31.04
1776;BME280;885;42.626;23.200;2022-07-23T12:04:52;152685.97;;;34.55;30.71
1776;BME280;885;42.626;23.200;2022-07-23T12:07:29;153454.72;;;34.55;32.43
1776;BME280;885;42.626;23.200;2022-07-23T12:09:58;151917.41;;;34.55;30.14
1776;BME280;885;42.626;23.200;2022-07-23T12:12:25;150386.66;;;34.58;28.72
1776;BME280;885;42.626;23.200;2022-07-23T12:14:54;151175.50;;;34.66;29.02
1776;BME280;885;42.626;23.200;2022-07-23T12:17:24;150425.03;;;34.74;28.23
1776;BME280;885;42.626;23.200;2022-07-23T12:19:54;147312.41;;;34.57;26.22
1776;BME280;885;42.626;23.200;2022-07-23T12:22:21;144969.59;;;34.39;25.15
1776;BME280;885;42.626;23.200;2022-07-23T12:25:00;141743.41;;;33.68;25.92
1776;BME280;885;42.626;23.200;2022-07-23T12:27:28;145292.91;;;34.13;27.86
1776;BME280;885;42.626;23.200;2022-07-23T12:29:54;145749.44;;;34.45;27.65
1776;BME280;885;42.626;23.200;2022-07-23T12:32:23;146191.34;;;34.70;27.28
1776;BME280;885;42.626;23.200;2022-07-23T12:35:02;147776.31;;;34.91;28.83
1776;BME280;885;42.626;23.200;2022-07-23T12:37:31;147407.50;;;34.97;28.34
1776;BME280;885;42.626;23.200;2022-07-23T12:43:05;146960.22;;;34.70;29.07
1776;BME280;885;42.626;23.200;2022-07-23T12:45:47;143814.63;;;34.37;27.32
1776;BME280;885;42.626;23.200;2022-07-23T12:48:22;144252.03;;;34.61;27.09
1776;BME280;885;42.626;23.200;2022-07-23T12:50:52;144663.28;;;34.73;27.52
1776;BME280;885;42.626;23.200;2022-07-23T12:53:21;144657.53;;;34.70;27.48
1776;BME280;885;42.626;23.200;2022-07-23T12:55:50;143889.09;;;34.70;27.29
1776;BME280;885;42.626;23.200;2022-07-23T12:58:20;144288.81;;;34.77;27.39
1776;BME280;885;42.626;23.200;2022-07-23T13:01:01;145082.78;;;34.88;28.43
1776;BME280;885;42.626;23.200;2022-07-23T13:03:34;142399.16;;;34.89;25.48
1776;BME280;885;42.626;23.200;2022-07-23T13:06:03;143192.63;;;35.01;26.42
1776;BME280;885;42.626;23.200;2022-07-23T13:08:32;142827.06;;;35.09;26.17
1776;BME280;885;42.626;23.200;2022-07-23T13:10:59;144751.97;;;35.11;28.86
1776;BME280;885;42.626;23.200;2022-07-23T13:13:30;144757.75;;;35.14;28.56
1776;BME280;885;42.626;23.200;2022-07-23T13:15:57;144772.72;;;35.21;28.04
1776;BME280;885;42.626;23.200;2022-07-23T13:18:25;143639.19;;;35.29;27.00
1776;BME280;885;42.626;23.200;2022-07-23T13:20:52;145155.56;;;35.20;28.83
1776;BME280;885;42.626;23.200;2022-07-23T13:23:19;142041.59;;;35.01;26.68
1776;BME280;885;42.626;23.200;2022-07-23T13:25:47;143967.03;;;35.04;29.16
1776;BME280;885;42.626;23.200;2022-07-23T13:28:15;142044.97;;;35.02;27.22
1776;BME280;885;42.626;23.200;2022-07-23T13:30:44;142423.00;;;35.00;28.31
1776;BME280;885;42.626;23.200;2022-07-23T13:33:13;142424.09;;;35.00;28.40
1776;BME280;885;42.626;23.200;2022-07-23T13:35:40;138945.00;;;34.88;25.08
1776;BME280;885;42.626;23.200;2022-07-23T13:38:06;140088.28;;;34.85;26.88
1776;BME280;885;42.626;23.200;2022-07-23T13:40:35;143160.69;;;34.87;30.08
1776;BME280;885;42.626;23.200;2022-07-23T13:43:04;141951.19;;;34.61;30.27
1776;BME280;885;42.626;23.200;2022-07-23T13:45:31;140762.03;;;34.43;29.81
1776;BME280;885;42.626;23.200;2022-07-23T13:48:00;140756.44;;;34.40;29.94
1776;BME280;885;42.626;23.200;2022-07-23T13:50:27;137646.53;;;34.19;27.63
1776;BME280;885;42.626;23.200;2022-07-23T13:52:54;139171.06;;;34.16;29.39
1776;BME280;885;42.626;23.200;2022-07-23T13:55:21;136422.59;;;33.84;27.80